Time;durP1;ratioP1;P1;durP2;ratioP2;P2;SDS_P1;SDS_P2;PMS_P1;PMS_P2;Temp;Humidity;BMP_temperature;BMP_pressure;BME280_temperature;BME280_humidity;BME280_pressure;Samples;Min_cycle;Max_cycle;Signal;HPM_P1;HPM_P2
2022/08/05 00:00:47;;;;;;;;;;;23.70;76.90;;;;;;5021944;28;19909;-77
2022/08/05 00:03:13;;;;;;;;;;;23.70;77.00;;;;;;5021312;28;19917;-77
2022/08/05 00:05:38;;;;;;;;;;;23.60;77.00;;;;;;5027602;28;20761;-77
2022/08/05 00:08:04;;;;;;;;;;;23.60;77.10;;;;;;5039953;28;20606;-77
2022/08/05 00:10:29;;;;;;;;;;;23.60;77.20;;;;;;5039910;28;19913;-77
2022/08/05 00:12:55;;;;;;;;;;;23.60;77.30;;;;;;5036358;28;20387;-77
2022/08/05 00:15:20;;;;;;;;;;;23.60;77.30;;;;;;5034605;28;19917;-77
2022/08/05 00:17:46;;;;;;;;;;;23.50;77.40;;;;;;5021405;28;19919;-76
2022/08/05 00:20:11;;;;;;;;;;;23.50;77.50;;;;;;5028830;28;20571;-77
2022/08/05 00:22:37;;;;;;;;;;;23.50;77.70;;;;;;5039609;28;20019;-76
2022/08/05 00:25:03;;;;;;;;;;;23.50;77.90;;;;;;5051146;28;19986;-77
2022/08/05 00:27:29;;;;;;;;;;;23.40;78.10;;;;;;5024913;28;19913;-77
2022/08/05 00:29:55;;;;;;;;;;;23.40;78.40;;;;;;5022155;28;19959;-76
2022/08/05 00:32:20;;;;;;;;;;;23.40;78.60;;;;;;5042525;28;20321;-77
2022/08/05 00:34:46;;;;;;;;;;;23.40;78.70;;;;;;5042916;28;19919;-77
2022/08/05 00:37:11;;;;;;;;;;;23.30;78.90;;;;;;5042240;28;19926;-77
2022/08/05 00:39:37;;;;;;;;;;;23.30;79.00;;;;;;5043042;28;20322;-77
2022/08/05 00:42:02;;;;;;;;;;;23.30;79.00;;;;;;5025840;28;20007;-77
2022/08/05 00:44:28;;;;;;;;;;;23.30;79.20;;;;;;5028388;28;19937;-76
2022/08/05 00:46:54;;;;;;;;;;;23.20;79.20;;;;;;5024189;28;20008;-77
2022/08/05 00:49:19;;;;;;;;;;;23.20;79.20;;;;;;5024505;28;19952;-76
2022/08/05 00:51:46;;;;;;;;;;;23.10;79.40;;;;;;5036947;28;20142;-77
2022/08/05 00:54:12;;;;;;;;;;;23.20;79.50;;;;;;5043155;28;20031;-77
2022/08/05 00:56:38;;;;;;;;;;;23.10;79.50;;;;;;5042649;28;19913;-77
2022/08/05 00:59:04;;;;;;;;;;;23.10;79.60;;;;;;5031567;28;19958;-76
2022/08/05 01:01:29;;;;;;;;;;;23.10;79.70;;;;;;5028107;28;19921;-77
2022/08/05 01:03:55;;;;;;;;;;;23.10;79.70;;;;;;5006001;28;19958;-77
2022/08/05 01:06:20;;;;;;;;;;;23.00;79.70;;;;;;5035792;28;20021;-76
2022/08/05 01:08:46;;;;;;;;;;;23.00;79.70;;;;;;5043073;28;19909;-77
2022/08/05 01:11:17;;;;;;;;;;;23.00;79.80;;;;;;5042531;28;20705;-77
2022/08/05 01:13:55;;;;;;;;;;;23.00;79.90;;;;;;5042672;28;19924;-76
2022/08/05 01:16:27;;;;;;;;;;;23.00;79.90;;;;;;5030800;28;19917;-77
2022/08/05 01:18:56;;;;;;;;;;;22.90;79.90;;;;;;5023049;28;20297;-77
2022/08/05 01:21:48;;;;;;;;;;;22.90;80.00;;;;;;5023836;28;19925;-76
2022/08/05 01:24:32;;;;;;;;;;;22.90;80.10;;;;;;5024163;28;19936;-77
2022/08/05 01:27:18;;;;;;;;;;;22.90;80.20;;;;;;5041778;28;20024;-77
2022/08/05 01:29:45;;;;;;;;;;;22.80;80.20;;;;;;5017911;28;19920;-77
2022/08/05 01:32:14;;;;;;;;;;;22.80;80.30;;;;;;5022879;28;19914;-76
2022/08/05 01:34:42;;;;;;;;;;;22.80;80.30;;;;;;5036832;28;19917;-77
2022/08/05 01:37:26;;;;;;;;;;;22.80;80.30;;;;;;5041415;28;19921;-76
2022/08/05 01:39:55;;;;;;;;;;;22.80;80.30;;;;;;5041750;28;19919;-77
2022/08/05 01:42:22;;;;;;;;;;;22.70;80.20;;;;;;5041907;28;19917;-77
2022/08/05 01:44:48;;;;;;;;;;;22.70;80.30;;;;;;5041984;28;19917;-77
2022/08/05 01:47:17;;;;;;;;;;;22.70;80.40;;;;;;5023905;28;19953;-77
2022/08/05 01:49:43;;;;;;;;;;;22.70;80.30;;;;;;5023447;28;19942;-76
2022/08/05 01:52:10;;;;;;;;;;;22.70;81.20;;;;;;5024476;28;20811;-77
2022/08/05 01:54:41;;;;;;;;;;;22.70;80.50;;;;;;5024053;28;19913;-77
2022/08/05 01:57:08;;;;;;;;;;;22.70;80.40;;;;;;5023394;28;20455;-77
2022/08/05 01:59:35;;;;;;;;;;;22.70;80.70;;;;;;5038777;28;19919;-77
2022/08/05 02:02:01;;;;;;;;;;;22.60;80.50;;;;;;5026430;28;20007;-76
2022/08/05 02:04:28;;;;;;;;;;;22.70;80.70;;;;;;5026669;28;20293;-76
2022/08/05 02:06:54;;;;;;;;;;;22.60;80.70;;;;;;5040025;28;19941;-76
2022/08/05 02:09:20;;;;;;;;;;;22.60;80.70;;;;;;5041665;28;20012;-77
2022/08/05 02:11:46;;;;;;;;;;;22.60;80.70;;;;;;5041694;28;19992;-76
2022/08/05 02:14:16;;;;;;;;;;;22.60;80.80;;;;;;5041480;28;20374;-77
2022/08/05 02:16:44;;;;;;;;;;;22.60;80.70;;;;;;5024256;28;19913;-76
2022/08/05 02:19:33;;;;;;;;;;;22.60;80.80;;;;;;5023281;28;19917;-76
2022/08/05 02:22:04;;;;;;;;;;;22.60;80.90;;;;;;5008357;28;20020;-77
2022/08/05 02:24:36;;;;;;;;;;;22.60;80.90;;;;;;5028103;28;19956;-77
2022/08/05 02:27:02;;;;;;;;;;;22.60;80.90;;;;;;5004988;28;20043;-76
2022/08/05 02:29:29;;;;;;;;;;;22.60;80.80;;;;;;5022808;28;20569;-77
2022/08/05 02:31:56;;;;;;;;;;;22.60;80.80;;;;;;5020521;28;19917;-76
2022/08/05 02:34:22;;;;;;;;;;;22.50;80.70;;;;;;5029548;28;19913;-77
2022/08/05 02:36:50;;;;;;;;;;;22.50;80.80;;;;;;5023108;28;20338;-76
2022/08/05 02:39:20;;;;;;;;;;;22.50;80.90;;;;;;5005088;28;20016;-76
2022/08/05 02:41:49;;;;;;;;;;;22.50;80.80;;;;;;5040850;28;20361;-76
2022/08/05 02:44:15;;;;;;;;;;;22.50;80.90;;;;;;5016897;28;19913;-75
2022/08/05 02:46:43;;;;;;;;;;;22.50;80.90;;;;;;5018139;28;19921;-76
2022/08/05 02:49:09;;;;;;;;;;;22.40;81.00;;;;;;5016091;28;20007;-76
2022/08/05 02:51:36;;;;;;;;;;;22.50;81.10;;;;;;5022245;28;19920;-76
2022/08/05 02:54:02;;;;;;;;;;;22.50;80.90;;;;;;5041424;28;19919;-76
2022/08/05 02:56:28;;;;;;;;;;;22.40;81.00;;;;;;5022605;28;19994;-77
2022/08/05 02:58:54;;;;;;;;;;;22.40;81.10;;;;;;5031113;28;19925;-77
2022/08/05 03:01:22;;;;;;;;;;;22.40;80.80;;;;;;5036432;28;19969;-76
2022/08/05 03:03:49;;;;;;;;;;;22.40;80.90;;;;;;5040246;28;19909;-77
2022/08/05 03:06:15;;;;;;;;;;;22.30;80.80;;;;;;5039028;28;20246;-77
2022/08/05 03:08:41;;;;;;;;;;;22.40;80.90;;;;;;5023766;28;19923;-77
2022/08/05 03:11:19;;;;;;;;;;;22.40;81.00;;;;;;5008775;28;19917;-77
2022/08/05 03:13:45;;;;;;;;;;;22.30;80.90;;;;;;5040008;28;20008;-77
2022/08/05 03:16:11;;;;;;;;;;;22.30;80.90;;;;;;5012267;28;20000;-77
2022/08/05 03:18:37;;;;;;;;;;;22.30;80.90;;;;;;5033838;28;19968;-77
2022/08/05 03:21:02;;;;;;;;;;;22.30;81.00;;;;;;5026755;28;20011;-77
2022/08/05 03:23:28;;;;;;;;;;;22.20;81.10;;;;;;5021535;28;19925;-77
2022/08/05 03:25:53;;;;;;;;;;;22.20;81.10;;;;;;5029033;28;19925;-76
2022/08/05 03:28:19;;;;;;;;;;;22.20;81.20;;;;;;5021659;28;19913;-76
2022/08/05 03:30:46;;;;;;;;;;;22.20;81.20;;;;;;5022426;28;20365;-76
2022/08/05 03:33:11;;;;;;;;;;;22.20;81.40;;;;;;5022330;28;20290;-77
2022/08/05 03:35:37;;;;;;;;;;;22.20;81.30;;;;;;5004131;28;19931;-77
2022/08/05 03:38:02;;;;;;;;;;;22.20;81.30;;;;;;5021970;28;19914;-77
2022/08/05 03:40:28;;;;;;;;;;;22.20;81.50;;;;;;5036606;28;19973;-77
2022/08/05 03:42:53;;;;;;;;;;;22.10;81.60;;;;;;5020593;28;19916;-77
2022/08/05 03:45:19;;;;;;;;;;;22.10;81.50;;;;;;5036243;28;19921;-77
2022/08/05 03:47:45;;;;;;;;;;;22.10;81.50;;;;;;5024880;28;19913;-77
2022/08/05 03:50:10;;;;;;;;;;;22.10;81.60;;;;;;5032632;28;19913;-77
2022/08/05 03:52:57;;;;;;;;;;;22.10;81.80;;;;;;5031766;28;19920;-76
2022/08/05 03:55:33;;;;;;;;;;;22.10;82.00;;;;;;5021897;28;19951;-77
2022/08/05 03:57:59;;;;;;;;;;;22.10;81.90;;;;;;5030848;28;19913;-77
2022/08/05 04:00:30;;;;;;;;;;;22.00;81.90;;;;;;5022842;28;20358;-77
2022/08/05 04:02:58;;;;;;;;;;;22.00;81.90;;;;;;5030065;28;19956;-77
2022/08/05 04:05:24;;;;;;;;;;;22.00;81.90;;;;;;5037610;28;19909;-77
2022/08/05 04:07:50;;;;;;;;;;;22.00;81.80;;;;;;5043442;28;19974;-77
2022/08/05 04:10:16;;;;;;;;;;;22.00;81.80;;;;;;5043990;28;19913;-77
2022/08/05 04:12:41;;;;;;;;;;;22.00;82.00;;;;;;5023668;28;19983;-77
2022/08/05 04:15:08;;;;;;;;;;;22.00;82.00;;;;;;5035068;28;19921;-77
2022/08/05 04:17:34;;;;;;;;;;;21.90;81.90;;;;;;5025043;28;20397;-77
2022/08/05 04:19:59;;;;;;;;;;;22.00;82.10;;;;;;5031473;28;19922;-76
2022/08/05 04:22:25;;;;;;;;;;;21.90;82.10;;;;;;5052310;28;19985;-77
2022/08/05 04:24:50;;;;;;;;;;;21.90;82.40;;;;;;5043482;28;19912;-76
2022/08/05 04:27:16;;;;;;;;;;;21.90;82.30;;;;;;5024983;28;19939;-77
2022/08/05 04:29:41;;;;;;;;;;;21.90;82.40;;;;;;5027039;28;20464;-77
2022/08/05 04:32:08;;;;;;;;;;;21.90;82.00;;;;;;5027354;28;19960;-77
2022/08/05 04:34:33;;;;;;;;;;;21.90;82.40;;;;;;5025460;28;19970;-77
2022/08/05 04:36:59;;;;;;;;;;;21.90;82.30;;;;;;5025087;28;20510;-76
2022/08/05 04:39:24;;;;;;;;;;;21.90;82.50;;;;;;5025517;28;19960;-76
2022/08/05 04:41:50;;;;;;;;;;;21.80;82.40;;;;;;5025243;28;19917;-76
2022/08/05 04:44:15;;;;;;;;;;;21.80;82.50;;;;;;5024791;28;19913;-76
2022/08/05 04:46:41;;;;;;;;;;;21.80;82.60;;;;;;5030672;28;19917;-77
2022/08/05 04:49:06;;;;;;;;;;;21.80;82.70;;;;;;5036605;28;20023;-76
2022/08/05 04:51:32;;;;;;;;;;;21.80;82.60;;;;;;5037502;28;19916;-77
2022/08/05 04:53:58;;;;;;;;;;;21.80;82.60;;;;;;5024453;28;19913;-77
2022/08/05 04:56:24;;;;;;;;;;;21.80;82.60;;;;;;5035347;28;19913;-77
2022/08/05 04:58:49;;;;;;;;;;;21.80;82.70;;;;;;5037128;28;20003;-76
2022/08/05 05:01:15;;;;;;;;;;;21.80;82.60;;;;;;5025009;28;19913;-77
2022/08/05 05:03:40;;;;;;;;;;;21.80;82.70;;;;;;5025785;28;19914;-77
2022/08/05 05:06:08;;;;;;;;;;;21.70;82.60;;;;;;5034359;28;19917;-77
2022/08/05 05:08:35;;;;;;;;;;;21.70;82.30;;;;;;5043343;28;19961;-77
2022/08/05 05:11:00;;;;;;;;;;;21.70;82.70;;;;;;5042857;28;19913;-76
2022/08/05 05:13:26;;;;;;;;;;;21.70;82.70;;;;;;5030427;28;20007;-77
2022/08/05 05:15:51;;;;;;;;;;;21.70;82.80;;;;;;5027412;28;20281;-76
2022/08/05 05:18:17;;;;;;;;;;;21.70;82.80;;;;;;5024616;28;19962;-76
2022/08/05 05:20:43;;;;;;;;;;;21.70;82.80;;;;;;5025086;28;19997;-77
2022/08/05 05:23:09;;;;;;;;;;;21.70;82.70;;;;;;5038939;28;19921;-77
2022/08/05 05:25:34;;;;;;;;;;;21.70;82.90;;;;;;5036873;28;19913;-77
2022/08/05 05:28:00;;;;;;;;;;;21.70;83.10;;;;;;5024115;28;19982;-77
2022/08/05 05:30:25;;;;;;;;;;;21.70;82.90;;;;;;5027740;28;19946;-77
2022/08/05 05:32:51;;;;;;;;;;;21.70;83.00;;;;;;5006662;28;20415;-77
2022/08/05 05:35:16;;;;;;;;;;;21.70;83.00;;;;;;5024456;28;19927;-77
2022/08/05 05:37:46;;;;;;;;;;;21.70;83.00;;;;;;5024033;28;19913;-77
2022/08/05 05:40:13;;;;;;;;;;;21.70;83.20;;;;;;5030863;28;20005;-76
2022/08/05 05:42:38;;;;;;;;;;;21.70;83.00;;;;;;5041328;28;19916;-76
2022/08/05 05:45:04;;;;;;;;;;;21.70;83.10;;;;;;5034525;28;19935;-75
2022/08/05 05:47:30;;;;;;;;;;;21.70;83.20;;;;;;5027285;28;19996;-75
2022/08/05 05:49:55;;;;;;;;;;;21.70;83.30;;;;;;5036526;28;19913;-75
2022/08/05 05:52:25;;;;;;;;;;;21.60;83.20;;;;;;5023277;28;20497;-75
2022/08/05 05:54:51;;;;;;;;;;;21.60;83.40;;;;;;5027958;28;19914;-74
2022/08/05 05:57:16;;;;;;;;;;;21.60;83.60;;;;;;5023425;28;20392;-75
2022/08/05 05:59:42;;;;;;;;;;;21.60;83.60;;;;;;5022624;28;19920;-75
2022/08/05 06:02:07;;;;;;;;;;;21.60;83.80;;;;;;5032109;28;19921;-74
2022/08/05 06:04:33;;;;;;;;;;;21.60;83.70;;;;;;5023987;28;19913;-74
2022/08/05 06:06:58;;;;;;;;;;;21.60;83.90;;;;;;5038808;28;19924;-74
2022/08/05 06:09:24;;;;;;;;;;;21.60;83.80;;;;;;5042287;28;20011;-74
2022/08/05 06:11:49;;;;;;;;;;;21.60;83.70;;;;;;5041867;28;19948;-73
2022/08/05 06:14:15;;;;;;;;;;;21.60;83.80;;;;;;5042372;28;20746;-73
2022/08/05 06:16:40;;;;;;;;;;;21.60;83.90;;;;;;5010625;28;19917;-74
2022/08/05 06:19:06;;;;;;;;;;;21.60;83.60;;;;;;5033802;28;20005;-74
2022/08/05 06:21:31;;;;;;;;;;;21.60;83.70;;;;;;5032579;28;19913;-74
2022/08/05 06:23:57;;;;;;;;;;;21.60;83.90;;;;;;5033506;28;19917;-74
2022/08/05 06:26:23;;;;;;;;;;;21.60;84.00;;;;;;5023191;28;20004;-74
2022/08/05 06:28:48;;;;;;;;;;;21.50;83.80;;;;;;5035023;28;20000;-74
2022/08/05 06:31:14;;;;;;;;;;;21.50;83.90;;;;;;5023430;28;19931;-74
2022/08/05 06:33:40;;;;;;;;;;;21.50;83.80;;;;;;5025544;28;20627;-74
2022/08/05 06:36:05;;;;;;;;;;;21.50;83.60;;;;;;5042477;28;19920;-74
2022/08/05 06:38:31;;;;;;;;;;;21.50;83.80;;;;;;5024836;28;19952;-74
2022/08/05 06:40:56;;;;;;;;;;;21.50;84.00;;;;;;5038572;28;19924;-75
2022/08/05 06:43:22;;;;;;;;;;;21.50;84.20;;;;;;5042246;28;20385;-74
2022/08/05 06:45:48;;;;;;;;;;;21.50;84.10;;;;;;5032897;28;20385;-74
2022/08/05 06:48:13;;;;;;;;;;;21.50;84.10;;;;;;5030204;28;19919;-75
2022/08/05 06:50:39;;;;;;;;;;;21.50;84.40;;;;;;5031346;28;19933;-75
2022/08/05 06:53:04;;;;;;;;;;;21.50;84.10;;;;;;5033753;28;20338;-74
2022/08/05 06:55:30;;;;;;;;;;;21.50;84.30;;;;;;5025390;28;19915;-75
2022/08/05 06:57:55;;;;;;;;;;;21.50;84.00;;;;;;5025093;28;20023;-74
2022/08/05 07:00:21;;;;;;;;;;;21.40;83.90;;;;;;5029395;28;20395;-75
2022/08/05 07:02:46;;;;;;;;;;;21.40;84.20;;;;;;5031386;28;19997;-74
2022/08/05 07:05:12;;;;;;;;;;;21.40;84.20;;;;;;5036727;28;19919;-75
2022/08/05 07:07:38;;;;;;;;;;;21.40;84.20;;;;;;5027870;28;19924;-75
2022/08/05 07:10:04;;;;;;;;;;;21.40;84.40;;;;;;5022947;28;20358;-75
2022/08/05 07:17:58;;;;;;;;;;;21.30;84.20;;;;;;5028982;28;19923;-74
2022/08/05 07:20:24;;;;;;;;;;;21.40;84.40;;;;;;5027844;28;20004;-74
2022/08/05 07:22:49;;;;;;;;;;;21.30;84.80;;;;;;5025944;28;20398;-74
2022/08/05 07:25:14;;;;;;;;;;;21.30;84.60;;;;;;5024459;28;20555;-74
2022/08/05 07:27:40;;;;;;;;;;;21.30;84.60;;;;;;5023708;28;19913;-75
2022/08/05 07:30:06;;;;;;;;;;;21.30;84.30;;;;;;5022588;28;20009;-75
2022/08/05 07:32:38;;;;;;;;;;;21.30;84.40;;;;;;5022430;28;19909;-75
2022/08/05 07:35:07;;;;;;;;;;;21.30;84.20;;;;;;5029963;28;20060;-75
2022/08/05 07:37:32;;;;;;;;;;;21.30;84.40;;;;;;5037797;28;19959;-75
2022/08/05 07:39:58;;;;;;;;;;;21.30;84.30;;;;;;5022762;28;19948;-75
2022/08/05 07:42:23;;;;;;;;;;;21.30;84.40;;;;;;5031013;28;20011;-75
2022/08/05 07:44:49;;;;;;;;;;;21.30;84.30;;;;;;5040516;28;19917;-74
2022/08/05 07:47:14;;;;;;;;;;;21.30;84.40;;;;;;5035505;28;19920;-75
2022/08/05 07:49:40;;;;;;;;;;;21.20;84.40;;;;;;5037842;28;20667;-75
2022/08/05 07:52:05;;;;;;;;;;;21.30;84.30;;;;;;5022698;28;20541;-74
2022/08/05 07:54:31;;;;;;;;;;;21.30;84.40;;;;;;5040500;28;20693;-74
2022/08/05 07:56:56;;;;;;;;;;;21.20;84.30;;;;;;5040221;28;20447;-75
2022/08/05 07:59:22;;;;;;;;;;;21.20;84.30;;;;;;5030894;28;20011;-74
2022/08/05 08:01:47;;;;;;;;;;;21.20;84.40;;;;;;5028170;28;19916;-74
2022/08/05 08:04:13;;;;;;;;;;;21.20;84.00;;;;;;5040433;28;19920;-75
2022/08/05 08:06:38;;;;;;;;;;;21.20;84.30;;;;;;5007650;28;20609;-74
2022/08/05 08:09:04;;;;;;;;;;;21.20;85.10;;;;;;5028558;28;19913;-74
2022/08/05 08:11:30;;;;;;;;;;;21.20;84.20;;;;;;5022065;28;19913;-75
2022/08/05 08:13:55;;;;;;;;;;;21.20;84.20;;;;;;5037356;28;19913;-75
2022/08/05 08:16:21;;;;;;;;;;;21.20;83.80;;;;;;5025844;28;19931;-75
2022/08/05 08:18:46;;;;;;;;;;;21.20;83.70;;;;;;5022195;28;19921;-75
2022/08/05 08:21:12;;;;;;;;;;;21.20;83.90;;;;;;5030879;28;19913;-75
2022/08/05 08:23:37;;;;;;;;;;;21.20;83.90;;;;;;5021020;28;20323;-75
2022/08/05 08:26:03;;;;;;;;;;;21.20;84.10;;;;;;5034847;28;19913;-75
2022/08/05 08:28:29;;;;;;;;;;;21.20;83.70;;;;;;5021891;28;19917;-75
2022/08/05 08:30:54;;;;;;;;;;;21.20;84.10;;;;;;5026177;28;20008;-75
2022/08/05 08:33:20;;;;;;;;;;;21.20;83.60;;;;;;5028124;28;19913;-75
2022/08/05 08:35:45;;;;;;;;;;;21.20;84.20;;;;;;5021798;28;20377;-75
2022/08/05 08:38:12;;;;;;;;;;;21.20;83.80;;;;;;5021162;28;19913;-75
2022/08/05 08:40:38;;;;;;;;;;;21.10;83.70;;;;;;5021646;28;20609;-74
2022/08/05 08:43:04;;;;;;;;;;;21.10;83.90;;;;;;5021998;28;20024;-74
2022/08/05 08:45:30;;;;;;;;;;;21.10;83.90;;;;;;5022051;28;19921;-74
2022/08/05 08:47:56;;;;;;;;;;;21.10;83.80;;;;;;5024093;28;19917;-75
2022/08/05 08:50:22;;;;;;;;;;;21.10;83.70;;;;;;5024342;28;19939;-75
2022/08/05 08:52:57;;;;;;;;;;;21.10;83.80;;;;;;5024246;28;19913;-75
2022/08/05 08:55:23;;;;;;;;;;;21.10;84.30;;;;;;5024231;28;19913;-75
2022/08/05 08:57:49;;;;;;;;;;;21.10;83.80;;;;;;5013356;28;19913;-75
2022/08/05 09:00:15;;;;;;;;;;;21.10;83.70;;;;;;5030890;28;20466;-75
2022/08/05 09:02:41;;;;;;;;;;;21.10;83.90;;;;;;5027815;28;19941;-76
2022/08/05 09:05:09;;;;;;;;;;;21.10;84.00;;;;;;5035572;28;19921;-75
2022/08/05 09:07:35;;;;;;;;;;;21.10;83.80;;;;;;5025202;28;19913;-75
2022/08/05 09:10:00;;;;;;;;;;;21.10;83.80;;;;;;5040165;28;19966;-76
2022/08/05 09:12:26;;;;;;;;;;;21.10;83.50;;;;;;5042799;28;20391;-75
2022/08/05 09:14:51;;;;;;;;;;;21.10;83.50;;;;;;5042731;28;19928;-76
2022/08/05 09:17:17;;;;;;;;;;;21.10;83.30;;;;;;5024581;28;19917;-75
2022/08/05 09:19:43;;;;;;;;;;;21.20;83.40;;;;;;5024702;28;20000;-75
2022/08/05 09:22:08;;;;;;;;;;;21.20;83.30;;;;;;5024350;28;20007;-75
2022/08/05 09:24:34;;;;;;;;;;;21.20;83.30;;;;;;5024469;28;19999;-75
2022/08/05 09:27:00;;;;;;;;;;;21.20;83.40;;;;;;5023980;28;19913;-75
2022/08/05 09:29:38;;;;;;;;;;;21.20;83.40;;;;;;5036201;28;19927;-75
2022/08/05 09:32:04;;;;;;;;;;;21.20;83.40;;;;;;5033878;28;20004;-75
2022/08/05 09:34:48;;;;;;;;;;;21.20;83.20;;;;;;5039183;28;20012;-75
2022/08/05 09:37:17;;;;;;;;;;;21.20;83.20;;;;;;5032579;28;20357;-75
2022/08/05 09:39:43;;;;;;;;;;;21.20;83.10;;;;;;5030606;28;19920;-75
2022/08/05 09:42:09;;;;;;;;;;;21.20;83.20;;;;;;5025735;28;19988;-75
2022/08/05 09:44:39;;;;;;;;;;;21.30;83.20;;;;;;5006007;28;20012;-75
2022/08/05 09:47:08;;;;;;;;;;;21.30;83.10;;;;;;5031746;28;19917;-75
2022/08/05 09:49:33;;;;;;;;;;;21.30;83.10;;;;;;5024665;28;20389;-75
2022/08/05 09:52:15;;;;;;;;;;;21.30;83.10;;;;;;5024396;28;19952;-76
2022/08/05 09:54:49;;;;;;;;;;;21.30;83.20;;;;;;5023601;28;19913;-75
2022/08/05 09:57:27;;;;;;;;;;;21.30;83.10;;;;;;5037375;28;19919;-75
2022/08/05 09:59:55;;;;;;;;;;;21.30;83.00;;;;;;5024841;28;19913;-75
2022/08/05 10:02:53;;;;;;;;;;;21.30;83.30;;;;;;5023786;28;20375;-75
2022/08/05 10:05:25;;;;;;;;;;;21.30;83.20;;;;;;5017540;28;19913;-76
2022/08/05 10:07:52;;;;;;;;;;;21.30;83.20;;;;;;5041870;28;19916;-75
2022/08/05 10:10:23;;;;;;;;;;;21.30;83.30;;;;;;5032497;28;19962;-77
2022/08/05 10:12:51;;;;;;;;;;;21.30;84.50;;;;;;5018277;28;19924;-76
2022/08/05 10:15:17;;;;;;;;;;;21.30;83.80;;;;;;5023311;28;19913;-75
2022/08/05 10:17:43;;;;;;;;;;;21.30;83.70;;;;;;5023217;28;19921;-76
2022/08/05 10:20:11;;;;;;;;;;;21.30;83.50;;;;;;5007820;28;19912;-75
2022/08/05 10:22:40;;;;;;;;;;;21.30;84.00;;;;;;5039226;28;19920;-76
2022/08/05 10:25:06;;;;;;;;;;;21.30;83.40;;;;;;5041539;28;19913;-76
2022/08/05 10:27:32;;;;;;;;;;;21.30;83.40;;;;;;5041643;28;20640;-76
2022/08/05 10:29:58;;;;;;;;;;;21.30;83.40;;;;;;5031765;28;19944;-76
2022/08/05 10:32:24;;;;;;;;;;;21.40;83.40;;;;;;5033560;28;20388;-76
2022/08/05 10:34:49;;;;;;;;;;;21.30;83.40;;;;;;5041500;28;20508;-76
2022/08/05 10:37:15;;;;;;;;;;;21.40;83.30;;;;;;5041001;28;19981;-76
2022/08/05 10:39:43;;;;;;;;;;;21.40;83.20;;;;;;5031927;28;19996;-76
2022/08/05 10:42:12;;;;;;;;;;;21.40;83.10;;;;;;5020517;28;20005;-76
2022/08/05 10:44:38;;;;;;;;;;;21.50;83.00;;;;;;5028541;28;19923;-76
2022/08/05 10:47:10;;;;;;;;;;;21.60;82.90;;;;;;5022756;28;19917;-76
2022/08/05 10:49:56;;;;;;;;;;;21.60;82.70;;;;;;5031097;28;19913;-76
2022/08/05 10:52:42;;;;;;;;;;;21.70;82.50;;;;;;5030931;28;19913;-75
2022/08/05 10:55:09;;;;;;;;;;;21.70;82.40;;;;;;5029724;28;20054;-75
2022/08/05 10:57:36;;;;;;;;;;;21.80;82.20;;;;;;5028188;28;19913;-76
2022/08/05 11:00:06;;;;;;;;;;;21.90;82.00;;;;;;5023188;28;19924;-75
2022/08/05 11:02:31;;;;;;;;;;;21.90;81.80;;;;;;5038236;28;19928;-76
2022/08/05 11:04:57;;;;;;;;;;;22.00;81.50;;;;;;5019015;28;19917;-76
2022/08/05 11:07:23;;;;;;;;;;;22.10;81.20;;;;;;5032049;28;19955;-76
2022/08/05 11:09:55;;;;;;;;;;;22.20;81.10;;;;;;5014030;28;20407;-76
2022/08/05 11:12:33;;;;;;;;;;;22.20;81.00;;;;;;5022101;28;19913;-75
2022/08/05 11:15:17;;;;;;;;;;;22.20;80.90;;;;;;5027746;28;20012;-76
2022/08/05 11:17:43;;;;;;;;;;;22.20;80.80;;;;;;5021917;28;19913;-76
2022/08/05 11:20:27;;;;;;;;;;;22.30;80.70;;;;;;5023253;28;20872;-76
2022/08/05 11:22:53;;;;;;;;;;;22.40;80.50;;;;;;5021826;28;20008;-76
2022/08/05 11:25:37;;;;;;;;;;;22.50;80.20;;;;;;5031732;28;20008;-75
2022/08/05 11:28:10;;;;;;;;;;;22.60;80.00;;;;;;5036366;28;19913;-76
2022/08/05 11:30:54;;;;;;;;;;;22.80;79.30;;;;;;5021003;28;19917;-75
2022/08/05 11:33:29;;;;;;;;;;;22.90;78.90;;;;;;5021422;28;19920;-75
2022/08/05 11:35:56;;;;;;;;;;;23.10;78.50;;;;;;5021391;28;19913;-75
2022/08/05 11:38:41;;;;;;;;;;;23.20;78.10;;;;;;5027370;28;19929;-75
2022/08/05 11:41:07;;;;;;;;;;;23.20;78.00;;;;;;4999177;28;20534;-75
2022/08/05 11:43:33;;;;;;;;;;;23.30;77.90;;;;;;5034458;28;19921;-75
2022/08/05 11:45:59;;;;;;;;;;;23.30;77.70;;;;;;5022406;28;19921;-75
2022/08/05 11:48:25;;;;;;;;;;;23.40;77.50;;;;;;5039003;28;19936;-75
2022/08/05 11:50:51;;;;;;;;;;;23.40;77.50;;;;;;5027244;28;20398;-75
2022/08/05 11:53:17;;;;;;;;;;;23.50;77.20;;;;;;5021080;28;20702;-75
2022/08/05 11:56:03;;;;;;;;;;;23.50;76.80;;;;;;5007870;28;19916;-75
2022/08/05 11:58:38;;;;;;;;;;;23.60;76.60;;;;;;5016158;28;20396;-75
2022/08/05 12:01:14;;;;;;;;;;;23.60;76.70;;;;;;5029172;28;19921;-74
2022/08/05 12:03:46;;;;;;;;;;;23.80;76.50;;;;;;5026277;28;19916;-74
2022/08/05 12:06:12;;;;;;;;;;;23.80;76.20;;;;;;5037442;28;19913;-75
2022/08/05 12:08:41;;;;;;;;;;;23.90;76.30;;;;;;5038686;28;19948;-75
2022/08/05 12:11:08;;;;;;;;;;;23.80;76.20;;;;;;5035194;28;19925;-75
2022/08/05 12:13:33;;;;;;;;;;;23.90;76.10;;;;;;5021073;28;20447;-75
2022/08/05 12:15:59;;;;;;;;;;;24.00;75.70;;;;;;5021212;28;19974;-75
2022/08/05 12:18:31;;;;;;;;;;;24.10;75.40;;;;;;5019729;28;20029;-75
2022/08/05 12:21:07;;;;;;;;;;;24.20;75.30;;;;;;5020776;28;19924;-75
2022/08/05 12:23:32;;;;;;;;;;;24.10;75.20;;;;;;5042834;28;20354;-75
2022/08/05 12:25:58;;;;;;;;;;;24.20;75.30;;;;;;5042612;28;19923;-75
2022/08/05 12:28:33;;;;;;;;;;;24.30;74.90;;;;;;5035942;28;19913;-75
2022/08/05 12:30:59;;;;;;;;;;;24.30;75.00;;;;;;5024106;28;20006;-75
2022/08/05 12:33:25;;;;;;;;;;;24.30;75.20;;;;;;5022651;28;19917;-75
2022/08/05 12:35:50;;;;;;;;;;;24.30;75.30;;;;;;5024250;28;19965;-75
2022/08/05 12:38:16;;;;;;;;;;;24.30;75.40;;;;;;5023891;28;20354;-75
2022/08/05 12:40:42;;;;;;;;;;;24.30;75.50;;;;;;5023680;28;20736;-75
2022/08/05 12:43:07;;;;;;;;;;;24.50;75.00;;;;;;5023931;28;20023;-75
2022/08/05 12:45:33;;;;;;;;;;;24.50;74.50;;;;;;5023966;28;19921;-75
2022/08/05 12:47:58;;;;;;;;;;;24.60;74.90;;;;;;5039860;28;19940;-75
2022/08/05 12:50:24;;;;;;;;;;;24.60;74.20;;;;;;5017127;28;20324;-74
2022/08/05 12:52:58;;;;;;;;;;;24.60;74.00;;;;;;5023711;28;20651;-75
2022/08/05 12:55:29;;;;;;;;;;;24.60;74.30;;;;;;5022330;28;19913;-75
2022/08/05 12:57:56;;;;;;;;;;;24.60;74.40;;;;;;5021823;28;19913;-75
2022/08/05 13:00:23;;;;;;;;;;;24.70;74.00;;;;;;5022523;28;19917;-75
2022/08/05 13:02:49;;;;;;;;;;;24.90;73.60;;;;;;5022620;28;19944;-75
2022/08/05 13:05:14;;;;;;;;;;;24.90;73.30;;;;;;5022194;28;20001;-75
2022/08/05 13:07:41;;;;;;;;;;;25.00;73.30;;;;;;5023272;28;20556;-75
2022/08/05 13:10:10;;;;;;;;;;;25.00;73.00;;;;;;5023997;28;20515;-75
2022/08/05 13:12:43;;;;;;;;;;;25.00;73.40;;;;;;5023371;28;19913;-75
2022/08/05 13:15:09;;;;;;;;;;;24.90;73.90;;;;;;5023033;28;19917;-75
2022/08/05 13:17:35;;;;;;;;;;;24.80;74.20;;;;;;5022330;28;19913;-75
2022/08/05 13:20:05;;;;;;;;;;;24.70;74.60;;;;;;5022710;28;19917;-75
2022/08/05 13:22:35;;;;;;;;;;;24.60;74.60;;;;;;5023136;28;20483;-75
2022/08/05 13:25:02;;;;;;;;;;;24.60;74.90;;;;;;5022379;28;19996;-75
2022/08/05 13:27:32;;;;;;;;;;;24.50;75.20;;;;;;5023341;28;20004;-74
2022/08/05 13:29:58;;;;;;;;;;;24.50;75.20;;;;;;5023461;28;19921;-75
2022/08/05 13:32:24;;;;;;;;;;;24.50;75.20;;;;;;5005066;28;19958;-74
2022/08/05 13:34:50;;;;;;;;;;;24.50;75.30;;;;;;5026623;28;19914;-75
2022/08/05 13:37:16;;;;;;;;;;;24.50;75.10;;;;;;5022981;28;20388;-75
2022/08/05 13:39:42;;;;;;;;;;;24.60;74.80;;;;;;5004855;28;19917;-75
2022/08/05 13:42:08;;;;;;;;;;;24.70;74.60;;;;;;5022403;28;20391;-75
2022/08/05 13:44:33;;;;;;;;;;;24.90;74.20;;;;;;5022802;28;19921;-75
2022/08/05 13:46:59;;;;;;;;;;;24.90;73.80;;;;;;5022945;28;20289;-75
2022/08/05 13:49:24;;;;;;;;;;;25.00;73.70;;;;;;5020487;28;20032;-75
2022/08/05 13:51:50;;;;;;;;;;;25.00;73.20;;;;;;5031989;28;19917;-75
2022/08/05 13:54:16;;;;;;;;;;;25.00;73.20;;;;;;5038595;28;20549;-75
2022/08/05 13:56:41;;;;;;;;;;;25.00;73.10;;;;;;5025785;28;19950;-75
2022/08/05 13:59:07;;;;;;;;;;;24.90;73.30;;;;;;5022897;28;19921;-75
2022/08/05 14:01:34;;;;;;;;;;;24.90;73.60;;;;;;5022494;28;19979;-75
2022/08/05 14:06:44;;;;;;;;;;;24.70;73.80;;;;;;5033609;28;19996;-75
2022/08/05 14:09:10;;;;;;;;;;;24.70;74.00;;;;;;5024762;28;20033;-75
2022/08/05 14:11:39;;;;;;;;;;;24.60;74.00;;;;;;5020509;28;19956;-75
2022/08/05 14:14:05;;;;;;;;;;;24.50;74.10;;;;;;5022997;28;20444;-75
2022/08/05 14:16:31;;;;;;;;;;;24.50;74.40;;;;;;5022342;28;19913;-75
2022/08/05 14:18:56;;;;;;;;;;;24.40;74.30;;;;;;5023112;28;20781;-75
2022/08/05 14:21:22;;;;;;;;;;;24.30;74.60;;;;;;5038648;28;19929;-75
2022/08/05 14:23:47;;;;;;;;;;;24.30;74.60;;;;;;5022967;28;19927;-76
2022/08/05 14:26:13;;;;;;;;;;;24.20;74.10;;;;;;5040644;28;19923;-75